createdAt,value
2018-08-23T00:02:24.844Z,97046.85
2018-08-23T00:07:19.636Z,97051.55
2018-08-23T00:12:14.321Z,97050.41
2018-08-23T00:17:08.962Z,97054.55
2018-08-23T00:22:04.338Z,97057.34
2018-08-23T00:27:00.331Z,97053.84
2018-08-23T00:32:00.342Z,97050.38
2018-08-23T00:36:56.861Z,97056.66
2018-08-23T00:41:56.843Z,97057.67
2018-08-23T00:46:53.180Z,97063.09
2018-08-23T00:51:48.116Z,97058.30
2018-08-23T00:56:43.285Z,97059.87
2018-08-23T01:01:38.096Z,97060.92
2018-08-23T01:06:44.116Z,97062.59
2018-08-23T01:11:39.353Z,97056.47
2018-08-23T01:16:34.095Z,97057.06
2018-08-23T01:21:28.773Z,97060.84
2018-08-23T01:26:23.509Z,97063.16
2018-08-23T01:31:29.428Z,97053.24
2018-08-23T01:36:30.171Z,97043.46
2018-08-23T01:41:24.816Z,97036.69
2018-08-23T01:46:19.516Z,97018.93
2018-08-23T01:51:14.243Z,97012.95
2018-08-23T01:56:10.263Z,97013.63
2018-08-23T02:01:14.161Z,97004.72
2018-08-23T02:06:08.884Z,97015.17
2018-08-23T02:11:03.597Z,97019.04
2018-08-23T02:16:03.307Z,97020.45
2018-08-23T02:21:02.032Z,97029.52
2018-08-23T02:25:56.713Z,97027.20
2018-08-23T02:30:56.134Z,97034.70
2018-08-23T02:36:22.241Z,97030.84
2018-08-23T02:41:17.444Z,97029.09
2018-08-23T02:46:12.118Z,97025.92
2018-08-23T02:51:07.193Z,97020.23
2018-08-23T02:56:09.565Z,97015.67
2018-08-23T03:01:06.571Z,97002.60
2018-08-23T03:06:07.802Z,96993.48
2018-08-23T03:11:02.430Z,96995.22
2018-08-23T03:15:57.100Z,96987.84
2018-08-23T03:21:05.512Z,96987.19
2018-08-23T03:26:00.183Z,96983.66
2018-08-23T03:31:02.930Z,96981.30
2018-08-23T03:35:57.628Z,96976.75
2018-08-23T03:40:52.316Z,96969.50
2018-08-23T03:45:46.945Z,96965.89
2018-08-23T03:55:50.503Z,96965.13
2018-08-23T04:01:06.592Z,96963.91
2018-08-23T04:06:20.169Z,96962.96
2018-08-23T04:11:14.976Z,96968.37
2018-08-23T04:16:09.651Z,96971.92
2018-08-23T04:21:04.421Z,96966.14
2018-08-23T04:25:59.071Z,96969.30
2018-08-23T04:30:53.780Z,96972.09
2018-08-23T04:35:48.449Z,96973.48
2018-08-23T04:41:00.099Z,96970.52
2018-08-23T04:45:55.001Z,96981.27
2018-08-23T04:50:49.954Z,96980.42
2018-08-23T04:55:44.699Z,96976.92
2018-08-23T05:00:39.371Z,96980.23
2018-08-23T05:05:34.080Z,96987.88
2018-08-23T05:10:28.726Z,96991.87
2018-08-23T05:15:23.393Z,96997.23
2018-08-23T05:20:18.117Z,96990.56
2018-08-23T05:25:16.630Z,96995.19
2018-08-23T05:30:14.160Z,96993.95
2018-08-23T05:35:08.927Z,97004.05
2018-08-23T05:40:03.627Z,97002.41
2018-08-23T05:44:58.317Z,96996.98
2018-08-23T05:49:52.965Z,96996.31
2018-08-23T05:54:47.627Z,96991.05
2018-08-23T05:59:42.348Z,96985.10
2018-08-23T06:04:43.601Z,96984.16
2018-08-23T06:09:38.448Z,96994.25
2018-08-23T06:14:33.157Z,96992.81
2018-08-23T06:19:28.868Z,96988.03
2018-08-23T06:24:27.694Z,96986.48
2018-08-23T06:29:25.112Z,96991.39
2018-08-23T06:34:20.527Z,96983.58
2018-08-23T06:39:15.316Z,96984.14
2018-08-23T06:44:09.985Z,96979.84
2018-08-23T06:49:04.772Z,96983.61
2018-08-23T07:00:00.515Z,96972.83
2018-08-23T07:04:55.178Z,96977.99
2018-08-23T07:09:49.875Z,96977.12
2018-08-23T07:14:46.830Z,96978.08
2018-08-23T07:19:41.554Z,96976.94
2018-08-23T07:24:50.260Z,96972.92
2018-08-23T07:29:47.689Z,96976.86
2018-08-23T07:34:50.596Z,96976.91
2018-08-23T07:39:50.751Z,96974.88
2018-08-23T07:44:45.392Z,96976.12
2018-08-23T07:49:40.511Z,96974.45
2018-08-23T07:54:35.162Z,96972.95
2018-08-23T07:59:30.693Z,96972.00
2018-08-23T08:04:25.419Z,96959.90
2018-08-23T08:09:27.691Z,96971.45
2018-08-23T08:14:27.624Z,96968.42
2018-08-23T08:19:22.322Z,96976.64
2018-08-23T08:24:17.035Z,96969.28
2018-08-23T08:29:13.609Z,96967.61
2018-08-23T08:34:08.280Z,96971.62
2018-08-23T08:39:05.088Z,96962.61
2018-08-23T08:43:59.823Z,96967.52
2018-08-23T08:48:54.456Z,96958.72
2018-08-23T08:53:49.209Z,96958.36
2018-08-23T08:58:44.098Z,96954.48
2018-08-23T09:03:39.321Z,96952.19
2018-08-23T09:08:34.447Z,96953.92
2018-08-23T09:13:34.365Z,96947.34
2018-08-23T09:18:29.116Z,96946.22
2018-08-23T09:23:24.838Z,96940.18
2018-08-23T09:28:21.169Z,96942.80
2018-08-23T09:33:20.979Z,96940.53
2018-08-23T09:38:16.186Z,96935.95
2018-08-23T09:43:10.970Z,96934.43
2018-08-23T09:48:05.965Z,96936.14
2018-08-23T09:53:00.616Z,96920.96
2018-08-23T09:57:55.383Z,96920.59
2018-08-23T10:02:55.110Z,96923.41
2018-08-23T10:07:55.114Z,96914.92
2018-08-23T10:12:55.209Z,96914.66
2018-08-23T10:17:56.199Z,96914.99
2018-08-23T10:23:04.425Z,96908.98
2018-08-23T10:27:59.533Z,96900.56
2018-08-23T10:32:54.291Z,96906.97
2018-08-23T10:37:48.972Z,96904.05
2018-08-23T10:42:43.878Z,96904.69
2018-08-23T10:47:43.827Z,96895.62
2018-08-23T10:52:38.532Z,96890.56
2018-08-23T10:57:33.280Z,96879.72
2018-08-23T11:02:27.981Z,96872.08
2018-08-23T11:07:26.797Z,96873.59
2018-08-23T11:12:26.536Z,96862.89
2018-08-23T11:17:26.576Z,96852.12
2018-08-23T11:22:25.390Z,96854.00
2018-08-23T11:27:20.131Z,96840.38
2018-08-23T11:32:15.185Z,96826.64
2018-08-23T11:37:09.815Z,96825.41
2018-08-23T11:42:04.550Z,96812.81
2018-08-23T11:46:59.132Z,96804.59
2018-08-23T11:51:54.805Z,96792.87
2018-08-23T11:56:49.648Z,96780.06
2018-08-23T12:01:44.431Z,96768.02
2018-08-23T12:06:39.351Z,96756.47
2018-08-23T12:11:34.048Z,96752.61
2018-08-23T12:16:28.998Z,96755.34
2018-08-23T12:21:24.499Z,96746.17
2018-08-23T12:26:19.408Z,96736.27
2018-08-23T12:31:14.057Z,96729.22
2018-08-23T12:36:11.915Z,96716.87
2018-08-23T12:41:12.259Z,96708.59
2018-08-23T12:46:06.988Z,96709.02
2018-08-23T12:51:01.709Z,96700.73
2018-08-23T12:55:56.452Z,96710.89
2018-08-23T13:00:51.688Z,96719.66
2018-08-23T13:05:46.459Z,96718.92
2018-08-23T13:10:41.535Z,96721.71
2018-08-23T13:15:36.456Z,96717.03
2018-08-23T13:20:31.584Z,96712.24
2018-08-23T13:25:26.421Z,96707.15
2018-08-23T13:30:21.521Z,96696.21
2018-08-23T13:35:16.501Z,96684.11
2018-08-23T13:40:16.997Z,96700.67
2018-08-23T13:45:12.096Z,96681.72
2018-08-23T13:50:07.167Z,96701.31
2018-08-23T13:55:06.308Z,96705.34
2018-08-23T14:00:08.387Z,96736.17
2018-08-23T14:05:03.414Z,96767.95
2018-08-23T14:09:58.379Z,96775.48
2018-08-23T14:15:00.055Z,96756.59
2018-08-23T14:19:55.406Z,96737.41
2018-08-23T14:24:50.285Z,96727.92
2018-08-23T14:29:45.023Z,96718.64
2018-08-23T14:34:39.832Z,96705.16
2018-08-23T14:39:34.843Z,96704.09
2018-08-23T14:44:29.787Z,96704.63
2018-08-23T14:49:29.797Z,96710.31
2018-08-23T14:54:29.956Z,96721.11
2018-08-23T14:59:24.862Z,96774.14
2018-08-23T15:04:20.562Z,96862.40
2018-08-23T15:09:15.310Z,96831.25
2018-08-23T15:14:10.267Z,96833.55
2018-08-23T15:19:05.607Z,96864.36
2018-08-23T15:24:00.452Z,96854.07
2018-08-23T15:28:55.279Z,96826.54
2018-08-23T15:33:50.150Z,96804.92
2018-08-23T15:38:44.971Z,96789.74
2018-08-23T15:43:39.800Z,96783.52
2018-08-23T15:48:34.511Z,96781.70
2018-08-23T15:53:29.259Z,96775.86
2018-08-23T15:58:23.988Z,96759.58
2018-08-23T16:03:18.695Z,96754.64
2018-08-23T16:08:13.369Z,96757.88
2018-08-23T16:13:08.189Z,96762.34
2018-08-23T16:18:08.116Z,96753.63
2018-08-23T16:23:03.137Z,96756.59
2018-08-23T16:27:57.899Z,96762.01
2018-08-23T16:32:52.594Z,96755.01
2018-08-23T16:37:47.266Z,96755.67
2018-08-23T16:42:42.067Z,96765.36
2018-08-23T16:47:36.832Z,96776.47
2018-08-23T16:52:31.551Z,96781.58
2018-08-23T16:57:26.269Z,96793.68
2018-08-23T17:02:20.989Z,96783.80
2018-08-23T17:07:16.905Z,96776.16
2018-08-23T17:12:11.939Z,96765.05
2018-08-23T17:17:11.862Z,96764.64
2018-08-23T17:22:06.659Z,96753.63
2018-08-23T17:27:01.504Z,96763.00
2018-08-23T17:31:56.179Z,96764.05
2018-08-23T17:36:50.968Z,96758.91
2018-08-23T17:41:45.621Z,96763.00
2018-08-23T17:46:40.377Z,96769.90
2018-08-23T17:51:35.154Z,96772.36
2018-08-23T17:56:30.260Z,96783.84
2018-08-23T18:01:25.030Z,96790.45
2018-08-23T18:06:19.827Z,96790.80
2018-08-23T18:11:14.621Z,96795.80
2018-08-23T18:16:14.404Z,96786.00
2018-08-23T18:21:09.164Z,96790.45
2018-08-23T18:26:04.112Z,96784.29
2018-08-23T18:30:59.011Z,96775.44
2018-08-23T18:35:54.027Z,96770.22
2018-08-23T18:40:48.821Z,96762.91
2018-08-23T18:45:43.656Z,96752.87
2018-08-23T18:55:44.944Z,96754.81
2018-08-23T19:00:39.875Z,96754.92
2018-08-23T19:05:35.204Z,96755.53
2018-08-23T19:10:30.286Z,96762.64
2018-08-23T19:15:31.186Z,96767.42
2018-08-23T19:20:26.037Z,96770.84
2018-08-23T19:25:20.986Z,96777.31
2018-08-23T19:30:16.412Z,96776.75
2018-08-23T19:35:11.465Z,96793.41
2018-08-23T19:40:06.470Z,96796.38
2018-08-23T19:45:02.598Z,96796.23
2018-08-23T19:49:58.679Z,96791.84
2018-08-23T19:54:53.637Z,96797.02
2018-08-23T19:59:48.589Z,96807.09
2018-08-23T20:04:43.977Z,96835.59
2018-08-23T20:09:39.279Z,96863.59
2018-08-23T20:14:34.242Z,96848.41
2018-08-23T20:19:29.493Z,96845.03
2018-08-23T20:24:24.607Z,96839.95
2018-08-23T20:29:21.344Z,96837.13
2018-08-23T20:34:16.373Z,96825.58
2018-08-23T20:39:13.882Z,96822.86
2018-08-23T20:44:09.983Z,96824.58
2018-08-23T20:49:04.988Z,96824.83
2018-08-23T20:53:59.916Z,96840.47
2018-08-23T20:58:55.156Z,96849.33
2018-08-23T21:03:50.116Z,96857.49
2018-08-23T21:08:45.009Z,96833.54
2018-08-23T21:13:43.418Z,96846.16
2018-08-23T21:18:40.984Z,96853.69
2018-08-23T21:23:37.740Z,96854.92
2018-08-23T21:28:32.913Z,96882.42
2018-08-23T21:33:27.815Z,96870.53
2018-08-23T21:38:22.712Z,96864.88
2018-08-23T21:43:17.647Z,96848.11
2018-08-23T21:48:12.573Z,96832.19
2018-08-23T21:53:07.628Z,96822.11
2018-08-23T21:58:02.704Z,96817.95
2018-08-23T22:02:57.641Z,96810.12
2018-08-23T22:07:53.602Z,96814.97
2018-08-23T22:12:48.406Z,96815.51
2018-08-23T22:17:43.527Z,96794.91
2018-08-23T22:22:39.568Z,96794.72
2018-08-23T22:27:34.884Z,96775.37
2018-08-23T22:32:30.892Z,96773.83
2018-08-23T22:37:26.231Z,96768.00
2018-08-23T22:42:21.132Z,96783.86
2018-08-23T22:47:16.008Z,96793.33
2018-08-23T22:52:11.176Z,96809.36
2018-08-23T22:57:06.134Z,96801.23
2018-08-23T23:02:01.110Z,96792.30
2018-08-23T23:06:56.329Z,96787.96
2018-08-23T23:11:51.612Z,96788.17
2018-08-23T23:16:46.586Z,96791.49
2018-08-23T23:21:46.281Z,96794.77
2018-08-23T23:26:41.172Z,96806.86
2018-08-23T23:31:35.976Z,96823.64
2018-08-23T23:36:30.793Z,96830.45
2018-08-23T23:41:25.569Z,96837.60
2018-08-23T23:46:21.061Z,96823.92
2018-08-23T23:51:15.936Z,96833.83
2018-08-23T23:56:10.783Z,96855.09
